createdAt,value
2023-03-25T00:00:44.690Z,100097.69
2023-03-25T00:02:49.348Z,100094.09
2023-03-25T00:04:54.870Z,100096.72
2023-03-25T00:06:56.821Z,100096.72
2023-03-25T00:08:58.298Z,100103.72
2023-03-25T00:11:01.411Z,100100.16
2023-03-25T00:13:05.543Z,100101.91
2023-03-25T00:15:08.725Z,100094.81
2023-03-25T00:17:10.972Z,100102.66
2023-03-25T00:19:13.665Z,100089.50
2023-03-25T00:21:15.227Z,100093.91
2023-03-25T00:23:19.644Z,100087.72
2023-03-25T00:25:21.983Z,100097.34
2023-03-25T00:27:23.478Z,100089.28
2023-03-25T00:29:24.984Z,100090.91
2023-03-25T00:31:26.945Z,100089.13
2023-03-25T00:33:29.364Z,100089.97
2023-03-25T00:35:31.203Z,100081.16
2023-03-25T00:37:32.694Z,100087.34
2023-03-25T00:39:34.160Z,100092.53
2023-03-25T00:41:37.201Z,100087.22
2023-03-25T00:43:39.435Z,100095.00
2023-03-25T00:45:41.164Z,100088.03
2023-03-25T00:47:43.648Z,100098.47
2023-03-25T00:49:45.389Z,100095.81
2023-03-25T00:51:52.489Z,100093.13
2023-03-25T00:53:56.922Z,100091.41
2023-03-25T00:55:58.606Z,100088.72
2023-03-25T00:58:00.252Z,100086.09
2023-03-25T01:00:02.200Z,100084.25
2023-03-25T01:02:06.761Z,100086.97
2023-03-25T01:04:12.600Z,100086.91
2023-03-25T01:06:16.364Z,100081.59
2023-03-25T01:08:17.816Z,100089.47
2023-03-25T01:10:19.473Z,100086.00
2023-03-25T01:12:21.408Z,100079.97
2023-03-25T01:14:29.254Z,100075.44
2023-03-25T01:16:30.841Z,100079.06
2023-03-25T01:18:34.908Z,100079.06
2023-03-25T01:20:36.658Z,100079.06
2023-03-25T01:22:38.163Z,100072.94
2023-03-25T01:24:39.707Z,100070.34
2023-03-25T01:26:43.581Z,100080.03
2023-03-25T01:28:45.627Z,100072.94
2023-03-25T01:30:47.149Z,100065.94
2023-03-25T01:32:48.707Z,100064.97
2023-03-25T01:34:50.387Z,100063.31
2023-03-25T01:36:55.589Z,100062.38
2023-03-25T01:38:59.213Z,100057.94
2023-03-25T01:41:00.856Z,100062.28
2023-03-25T01:43:02.339Z,100050.09
2023-03-25T01:45:19.428Z,100049.13
2023-03-25T01:47:22.754Z,100051.81
2023-03-25T01:49:31.295Z,100052.59
2023-03-25T01:51:37.465Z,100047.34
2023-03-25T01:53:39.457Z,100053.47
2023-03-25T01:55:41.038Z,100043.91
2023-03-25T01:57:46.266Z,100050.03
2023-03-25T01:59:50.595Z,100051.84
2023-03-25T02:01:53.680Z,100049.34
2023-03-25T02:04:03.044Z,100039.66
2023-03-25T02:06:11.070Z,100038.84
2023-03-25T02:08:15.885Z,100041.59
2023-03-25T02:10:18.724Z,100041.66
2023-03-25T02:12:20.216Z,100041.53
2023-03-25T02:14:26.925Z,100033.59
2023-03-25T02:16:43.581Z,100032.69
2023-03-25T02:19:28.065Z,100031.00
2023-03-25T02:21:50.219Z,100035.31
2023-03-25T02:24:06.982Z,100030.91
2023-03-25T02:26:08.376Z,100026.59
2023-03-25T02:28:38.788Z,100023.84
2023-03-25T02:30:58.328Z,100028.25
2023-03-25T02:33:31.160Z,100032.69
2023-03-25T02:35:53.398Z,100025.75
2023-03-25T02:38:07.003Z,100028.38
2023-03-25T02:41:01.100Z,100028.38
2023-03-25T02:43:14.473Z,100026.66
2023-03-25T02:45:25.655Z,100024.81
2023-03-25T02:47:33.382Z,100023.91
2023-03-25T02:49:58.255Z,100018.66
2023-03-25T02:52:20.694Z,100021.28
2023-03-25T02:54:25.516Z,100018.59
2023-03-25T02:56:29.466Z,100021.28
2023-03-25T02:58:33.024Z,100018.59
2023-03-25T03:00:38.315Z,100014.34
2023-03-25T03:02:40.677Z,100015.31
2023-03-25T03:04:52.015Z,100017.13
2023-03-25T03:06:56.580Z,100014.59
2023-03-25T03:09:06.782Z,100019.97
2023-03-25T03:11:31.971Z,100009.44
2023-03-25T03:13:39.371Z,100011.25
2023-03-25T03:15:53.420Z,100013.88
2023-03-25T03:17:56.210Z,100006.81
2023-03-25T03:20:32.703Z,100004.16
2023-03-25T03:23:02.087Z,100003.38
2023-03-25T03:25:22.760Z,100008.63
2023-03-25T03:27:40.538Z,100003.38
2023-03-25T03:29:52.465Z,99999.91
2023-03-25T03:32:16.458Z,99994.56
2023-03-25T03:34:27.446Z,99995.47
2023-03-25T03:36:35.139Z,99999.81
2023-03-25T03:39:00.298Z,100005.84
2023-03-25T03:41:09.642Z,100006.69
2023-03-25T03:43:18.505Z,100007.56
2023-03-25T03:45:23.940Z,100003.94
2023-03-25T03:47:32.221Z,100013.63
2023-03-25T03:49:42.392Z,100006.59
2023-03-25T03:51:52.676Z,100014.53
2023-03-25T03:54:08.608Z,100007.56
2023-03-25T03:56:23.123Z,100008.53
2023-03-25T03:58:29.941Z,100010.34
2023-03-25T04:01:09.903Z,100027.00
2023-03-25T04:03:25.954Z,100024.41
2023-03-25T04:05:30.907Z,100021.00
2023-03-25T04:07:54.698Z,100014.09
2023-03-25T04:10:17.833Z,100019.47
2023-03-25T04:12:24.452Z,100017.88
2023-03-25T04:14:26.398Z,100026.78
2023-03-25T04:16:28.542Z,100019.00
2023-03-25T04:18:33.702Z,100023.50
2023-03-25T04:20:36.613Z,100028.00
2023-03-25T04:22:38.494Z,100020.22
2023-03-25T04:24:41.602Z,100021.13
2023-03-25T04:26:43.790Z,100024.69
2023-03-25T04:28:45.226Z,100022.22
2023-03-25T04:30:48.575Z,100023.13
2023-03-25T04:32:51.639Z,100028.44
2023-03-25T04:34:57.676Z,100029.41
2023-03-25T04:36:59.148Z,100027.84
2023-03-25T04:39:01.244Z,100028.75
2023-03-25T04:41:06.851Z,100028.94
2023-03-25T04:43:08.473Z,100026.41
2023-03-25T04:45:16.417Z,100025.56
2023-03-25T04:47:21.117Z,100020.41
2023-03-25T04:49:23.724Z,100029.19
2023-03-25T04:51:25.216Z,100025.66
2023-03-25T04:53:27.828Z,100023.88
2023-03-25T04:55:29.922Z,100017.78
2023-03-25T04:57:31.391Z,100013.41
2023-03-25T04:59:32.861Z,100016.09
2023-03-25T05:01:37.833Z,100016.06
2023-03-25T05:03:40.165Z,100019.53
2023-03-25T05:05:42.140Z,100016.97
2023-03-25T05:07:45.401Z,100010.78
2023-03-25T05:09:46.854Z,100013.38
2023-03-25T05:11:49.653Z,100016.84
2023-03-25T05:13:51.171Z,100020.28
2023-03-25T05:15:52.972Z,100022.06
2023-03-25T05:17:54.692Z,100029.91
2023-03-25T05:19:56.935Z,100030.78
2023-03-25T05:21:58.418Z,100030.66
2023-03-25T05:24:01.721Z,100031.53
2023-03-25T05:26:03.541Z,100030.63
2023-03-25T05:28:06.070Z,100024.44
2023-03-25T05:30:08.126Z,100027.84
2023-03-25T05:32:09.642Z,100031.44
2023-03-25T05:34:11.448Z,100029.72
2023-03-25T05:36:13.886Z,100028.78
2023-03-25T05:38:19.184Z,100034.88
2023-03-25T05:40:21.379Z,100037.44
2023-03-25T05:42:23.833Z,100033.97
2023-03-25T05:44:26.164Z,100032.19
2023-03-25T05:46:31.732Z,100027.78
2023-03-25T05:48:33.284Z,100037.44
2023-03-25T05:50:37.629Z,100036.53
2023-03-25T05:52:41.727Z,100045.19
2023-03-25T05:54:45.147Z,100039.88
2023-03-25T05:56:46.753Z,100042.50
2023-03-25T05:58:49.708Z,100040.75
2023-03-25T06:00:51.864Z,100045.00
2023-03-25T06:02:53.488Z,100044.88
2023-03-25T06:04:55.339Z,100034.34
2023-03-25T06:06:56.789Z,100039.56
2023-03-25T06:08:58.739Z,100043.00
2023-03-25T06:11:00.826Z,100041.22
2023-03-25T06:13:02.557Z,100040.31
2023-03-25T06:15:08.592Z,100032.34
2023-03-25T06:17:10.970Z,100028.00
2023-03-25T06:19:12.550Z,100034.19
2023-03-25T06:21:13.976Z,100035.91
2023-03-25T06:23:15.734Z,100036.00
2023-03-25T06:25:19.798Z,100036.09
2023-03-25T06:27:22.004Z,100038.75
2023-03-25T06:29:23.506Z,100043.16
2023-03-25T06:31:27.714Z,100041.38
2023-03-25T06:33:42.771Z,100047.44
2023-03-25T06:35:53.608Z,100050.69
2023-03-25T06:37:55.442Z,100049.66
2023-03-25T06:39:56.950Z,100057.41
2023-03-25T06:41:59.031Z,100042.38
2023-03-25T06:44:00.706Z,100047.31
2023-03-25T06:46:02.493Z,100048.94
2023-03-25T06:48:05.414Z,100048.69
2023-03-25T06:50:07.882Z,100049.44
2023-03-25T06:52:09.400Z,100050.25
2023-03-25T06:54:10.949Z,100054.53
2023-03-25T06:56:12.407Z,100050.78
2023-03-25T06:58:14.132Z,100048.78
2023-03-25T07:00:20.278Z,100056.41
2023-03-25T07:02:21.772Z,100047.47
2023-03-25T07:04:23.313Z,100052.63
2023-03-25T07:06:25.058Z,100042.84
2023-03-25T07:08:26.677Z,100055.06
2023-03-25T07:10:28.218Z,100047.97
2023-03-25T07:12:29.862Z,100049.53
2023-03-25T07:14:31.327Z,100045.88
2023-03-25T07:16:32.944Z,100052.78
2023-03-25T07:18:34.468Z,100040.47
2023-03-25T07:20:36.032Z,100046.66
2023-03-25T07:22:37.537Z,100043.13
2023-03-25T07:24:38.985Z,100051.94
2023-03-25T07:26:40.630Z,100038.81
2023-03-25T07:28:42.134Z,100049.34
2023-03-25T07:30:43.677Z,100053.03
2023-03-25T07:32:45.969Z,100054.09
2023-03-25T07:34:47.575Z,100054.25
2023-03-25T07:36:49.093Z,100054.41
2023-03-25T07:38:50.587Z,100050.22
2023-03-25T07:40:52.048Z,100053.09
2023-03-25T07:42:53.501Z,100047.75
2023-03-25T07:44:54.935Z,100061.72
2023-03-25T07:46:56.540Z,100052.81
2023-03-25T07:48:58.044Z,100059.69
2023-03-25T07:50:59.521Z,100065.69
2023-03-25T07:53:01.024Z,100089.34
2023-03-25T07:55:02.471Z,100073.78
2023-03-25T07:57:04.123Z,100079.25
2023-03-25T07:59:05.603Z,100079.59
2023-03-25T08:01:07.242Z,100082.66
2023-03-25T08:03:11.859Z,100085.78
2023-03-25T08:05:21.591Z,100088.13
2023-03-25T08:07:23.431Z,100097.44
2023-03-25T08:09:24.897Z,100097.34
2023-03-25T08:11:26.370Z,100090.03
2023-03-25T08:13:28.510Z,100087.81
2023-03-25T08:15:30.006Z,100084.50
2023-03-25T08:17:31.630Z,100090.94
2023-03-25T08:19:33.676Z,100092.94
2023-03-25T08:21:35.482Z,100094.84
2023-03-25T08:23:37.553Z,100100.28
2023-03-25T08:25:41.733Z,100102.09
2023-03-25T08:27:43.312Z,100088.31
2023-03-25T08:29:47.209Z,100086.63
2023-03-25T08:31:52.328Z,100086.72
2023-03-25T08:33:53.994Z,100100.59
2023-03-25T08:35:57.714Z,100096.19
2023-03-25T08:38:01.343Z,100100.59
2023-03-25T08:40:07.585Z,100094.47
2023-03-25T08:42:09.512Z,100103.31
2023-03-25T08:44:11.935Z,100097.09
2023-03-25T08:46:13.779Z,100102.09
2023-03-25T08:48:15.516Z,100090.31
2023-03-25T08:50:17.107Z,100093.56
2023-03-25T08:52:18.748Z,100089.66
2023-03-25T08:54:20.534Z,100086.66
2023-03-25T08:56:22.085Z,100079.34
2023-03-25T08:58:25.186Z,100079.13
2023-03-25T09:00:27.346Z,100078.81
2023-03-25T09:02:28.849Z,100078.47
2023-03-25T09:04:30.902Z,100077.25
2023-03-25T09:06:47.278Z,100082.25
2023-03-25T09:08:50.235Z,100080.94
2023-03-25T09:10:54.539Z,100077.84
2023-03-25T09:12:56.758Z,100088.84
2023-03-25T09:14:58.250Z,100087.44
2023-03-25T09:16:59.762Z,100080.06
2023-03-25T09:19:02.132Z,100082.47
2023-03-25T09:21:04.453Z,100082.28
2023-03-25T09:23:05.905Z,100077.03
2023-03-25T09:25:08.160Z,100072.81
2023-03-25T09:27:09.724Z,100074.63
2023-03-25T09:29:11.185Z,100073.88
2023-03-25T09:31:12.849Z,100076.41
2023-03-25T09:33:14.429Z,100071.88
2023-03-25T09:35:15.949Z,100077.97
2023-03-25T09:37:18.138Z,100072.63
2023-03-25T09:39:20.040Z,100073.47
2023-03-25T09:41:30.550Z,100075.19
2023-03-25T09:43:56.983Z,100068.19
2023-03-25T09:45:59.879Z,100070.78
2023-03-25T09:48:10.698Z,100066.13
2023-03-25T09:50:15.822Z,100063.84
2023-03-25T09:52:24.156Z,100057.13
2023-03-25T09:54:28.623Z,100063.06
2023-03-25T09:56:37.494Z,100053.38
2023-03-25T09:58:49.497Z,100045.34
2023-03-25T10:01:03.316Z,100055.84
2023-03-25T10:03:46.096Z,100054.31
2023-03-25T10:06:09.341Z,100044.13
2023-03-25T10:08:26.445Z,100059.50
2023-03-25T10:10:36.880Z,100069.59
2023-03-25T10:12:43.607Z,100068.19
2023-03-25T10:15:18.237Z,100059.00
2023-03-25T10:17:45.968Z,100065.56
2023-03-25T10:19:54.213Z,100065.94
2023-03-25T10:22:37.433Z,100067.88
2023-03-25T10:24:56.771Z,100077.69
2023-03-25T10:27:32.212Z,100073.25
2023-03-25T10:29:46.849Z,100092.44
2023-03-25T10:31:53.889Z,100088.09
2023-03-25T10:34:01.316Z,100090.78
2023-03-25T10:36:06.575Z,100097.69
2023-03-25T10:38:18.750Z,100087.38
2023-03-25T10:40:27.203Z,100087.91
2023-03-25T10:42:35.147Z,100076.97
2023-03-25T10:44:36.637Z,100078.22
2023-03-25T10:46:50.738Z,100086.53
2023-03-25T10:48:52.469Z,100065.97
2023-03-25T10:51:10.799Z,100061.97
2023-03-25T10:53:26.257Z,100069.75
2023-03-25T10:55:34.911Z,100078.56
2023-03-25T10:57:36.900Z,100074.19
2023-03-25T11:00:01.651Z,100067.44
2023-03-25T11:02:17.456Z,100069.63
2023-03-25T11:04:21.564Z,100071.22
2023-03-25T11:06:29.783Z,100070.63
2023-03-25T11:08:31.392Z,100066.50
2023-03-25T11:10:34.324Z,100074.72
2023-03-25T11:12:42.949Z,100070.41
2023-03-25T11:14:44.591Z,100065.00
2023-03-25T11:16:49.220Z,100061.84
2023-03-25T11:18:52.888Z,100066.53
2023-03-25T11:21:02.647Z,100056.28
2023-03-25T11:23:19.348Z,100076.16
2023-03-25T11:25:29.259Z,100078.91
2023-03-25T11:27:46.023Z,100074.47
2023-03-25T11:29:57.757Z,100048.28
2023-03-25T11:32:33.353Z,100059.78
2023-03-25T11:34:42.070Z,100050.09
2023-03-25T11:36:59.181Z,100064.06
2023-03-25T11:39:16.467Z,100055.34
2023-03-25T11:41:18.029Z,100051.34
2023-03-25T11:43:22.847Z,100054.06
2023-03-25T11:45:40.000Z,100063.78
2023-03-25T11:47:42.238Z,100060.78
2023-03-25T11:49:49.348Z,100067.06
2023-03-25T11:51:57.964Z,100074.50
2023-03-25T11:54:01.485Z,100067.44
2023-03-25T11:56:08.229Z,100059.88
2023-03-25T11:58:17.350Z,100071.22
2023-03-25T12:00:25.166Z,100076.75
2023-03-25T12:02:31.129Z,100071.19
2023-03-25T12:04:32.721Z,100085.75
2023-03-25T12:06:34.388Z,100068.91
2023-03-25T12:08:43.095Z,100078.34
2023-03-25T12:10:50.547Z,100077.03
2023-03-25T12:13:04.529Z,100076.16
2023-03-25T12:15:06.860Z,100085.22
2023-03-25T12:17:42.328Z,100076.25
2023-03-25T12:20:33.603Z,100072.13
2023-03-25T12:23:05.567Z,100072.31
2023-03-25T12:25:26.385Z,100075.66
2023-03-25T12:27:40.322Z,100079.91
2023-03-25T12:30:02.784Z,100091.16
2023-03-25T12:32:16.620Z,100084.09
2023-03-25T12:34:39.819Z,100098.34
2023-03-25T12:36:43.940Z,100085.72
2023-03-25T12:38:55.539Z,100074.44
2023-03-25T12:41:20.121Z,100083.69
2023-03-25T12:43:42.986Z,100078.59
2023-03-25T12:46:03.954Z,100085.84
2023-03-25T12:48:23.380Z,100075.53
2023-03-25T12:51:21.254Z,100071.31
2023-03-25T12:53:47.574Z,100066.09
2023-03-25T12:56:09.961Z,100060.72
2023-03-25T12:58:33.681Z,100073.03
2023-03-25T13:00:53.667Z,100070.50
2023-03-25T13:03:32.891Z,100067.69
2023-03-25T13:06:06.236Z,100071.25
2023-03-25T13:08:14.738Z,100077.59
2023-03-25T13:10:24.942Z,100069.81
2023-03-25T13:12:35.194Z,100072.78
2023-03-25T13:14:42.580Z,100066.94
2023-03-25T13:16:45.383Z,100069.81
2023-03-25T13:18:49.789Z,100077.72
2023-03-25T13:21:14.067Z,100062.00
2023-03-25T13:23:21.484Z,100068.09
2023-03-25T13:25:44.733Z,100060.81
2023-03-25T13:27:48.886Z,100050.09
2023-03-25T13:29:54.651Z,100055.03
2023-03-25T13:32:01.306Z,100045.03
2023-03-25T13:34:16.463Z,100047.44
2023-03-25T13:36:26.995Z,100050.81
2023-03-25T13:38:34.091Z,100043.00
2023-03-25T13:41:03.559Z,100049.94
2023-03-25T13:43:21.952Z,100040.50
2023-03-25T13:45:25.242Z,100044.72
2023-03-25T13:47:31.899Z,100041.78
2023-03-25T13:49:42.397Z,100046.50
2023-03-25T13:51:43.879Z,100026.81
2023-03-25T13:54:01.775Z,100031.44
2023-03-25T13:56:06.327Z,100032.19
2023-03-25T13:58:13.022Z,100035.47
2023-03-25T14:00:25.138Z,100030.53
2023-03-25T14:02:54.078Z,100025.50
2023-03-25T14:05:16.485Z,100024.25
2023-03-25T14:08:12.316Z,100030.66
2023-03-25T14:10:23.046Z,100017.78
2023-03-25T14:12:27.305Z,100022.22
2023-03-25T14:14:35.467Z,100019.09
2023-03-25T14:16:44.990Z,100024.00
2023-03-25T14:18:49.569Z,100016.22
2023-03-25T14:20:51.631Z,100024.81
2023-03-25T14:23:04.309Z,100016.53
2023-03-25T14:25:07.019Z,100029.38
2023-03-25T14:27:30.017Z,100023.34
2023-03-25T14:29:34.273Z,100023.25
2023-03-25T14:31:36.411Z,100030.00
2023-03-25T14:34:10.633Z,100021.69
2023-03-25T14:36:12.232Z,100028.25
2023-03-25T14:38:18.109Z,100026.66
2023-03-25T14:40:54.931Z,100020.72
2023-03-25T14:43:00.937Z,100035.81
2023-03-25T14:45:31.991Z,100034.09
2023-03-25T14:47:35.426Z,100043.22
2023-03-25T14:50:04.621Z,100036.41
2023-03-25T14:52:15.852Z,100024.38
2023-03-25T14:54:37.774Z,100033.38
2023-03-25T14:56:57.560Z,100031.16
2023-03-25T14:59:07.927Z,100043.09
2023-03-25T15:01:14.761Z,100057.56
2023-03-25T15:03:18.735Z,100035.97
2023-03-25T15:05:29.344Z,100033.47
2023-03-25T15:08:00.192Z,100032.44
2023-03-25T15:10:02.110Z,100016.28
2023-03-25T15:12:05.619Z,100014.88
2023-03-25T15:14:22.127Z,100002.34
2023-03-25T15:16:26.705Z,99993.53
2023-03-25T15:18:37.315Z,99977.84
2023-03-25T15:20:38.991Z,99979.09
2023-03-25T15:22:40.517Z,99982.41
2023-03-25T15:24:47.665Z,99984.25
2023-03-25T15:26:49.800Z,99976.66
2023-03-25T15:29:08.820Z,99983.94
2023-03-25T15:31:25.407Z,99985.88
2023-03-25T15:33:46.180Z,99984.22
2023-03-25T15:36:15.293Z,99990.50
2023-03-25T15:38:32.492Z,99978.41
2023-03-25T15:40:52.759Z,99970.75
2023-03-25T15:43:03.569Z,99978.16
2023-03-25T15:45:45.693Z,99968.56
2023-03-25T15:48:07.824Z,99967.91
2023-03-25T15:50:38.337Z,99960.31
2023-03-25T15:53:39.477Z,99958.75
2023-03-25T15:56:01.270Z,99964.97
2023-03-25T15:58:07.741Z,99956.25
2023-03-25T16:00:29.659Z,99957.97
2023-03-25T16:02:37.035Z,99945.81
2023-03-25T16:04:44.902Z,99960.84
2023-03-25T16:06:50.913Z,99981.16
2023-03-25T16:08:54.970Z,100025.22
2023-03-25T16:10:56.484Z,100061.50
2023-03-25T16:12:57.997Z,100075.47
2023-03-25T16:14:59.496Z,100040.09
2023-03-25T16:17:04.533Z,100032.91
2023-03-25T16:19:11.781Z,100029.41
2023-03-25T16:21:14.845Z,100026.41
2023-03-25T16:23:21.696Z,100027.53
2023-03-25T16:25:35.338Z,100036.19
2023-03-25T16:27:42.165Z,100029.25
2023-03-25T16:29:48.429Z,100019.69
2023-03-25T16:31:54.305Z,100031.13
2023-03-25T16:33:59.677Z,100017.91
2023-03-25T16:36:04.313Z,100038.06
2023-03-25T16:38:07.284Z,100031.13
2023-03-25T16:40:18.427Z,100028.66
2023-03-25T16:42:26.476Z,100032.25
2023-03-25T16:44:28.064Z,100032.34
2023-03-25T16:46:29.975Z,100027.03
2023-03-25T16:48:36.647Z,100033.03
2023-03-25T16:50:39.686Z,100031.13
2023-03-25T16:52:42.134Z,100031.88
2023-03-25T16:54:52.697Z,100023.03
2023-03-25T16:56:54.885Z,100025.75
2023-03-25T16:58:58.787Z,100040.84
2023-03-25T17:01:02.042Z,100029.41
2023-03-25T17:03:05.806Z,100036.53
2023-03-25T17:05:23.881Z,100036.38
2023-03-25T17:07:27.935Z,100039.97
2023-03-25T17:09:35.364Z,100035.56
2023-03-25T17:11:36.884Z,100039.97
2023-03-25T17:13:51.754Z,100043.47
2023-03-25T17:15:53.600Z,100030.31
2023-03-25T17:18:01.424Z,100046.09
2023-03-25T17:20:11.269Z,100045.25
2023-03-25T17:22:20.230Z,100049.63
2023-03-25T17:24:24.266Z,100054.84
2023-03-25T17:26:31.629Z,100047.81
2023-03-25T17:28:40.317Z,100057.44
2023-03-25T17:30:44.663Z,100053.78
2023-03-25T17:32:46.681Z,100054.66
2023-03-25T17:35:06.519Z,100068.66
2023-03-25T17:37:13.684Z,100065.19
2023-03-25T17:39:21.633Z,100072.22
2023-03-25T17:41:28.883Z,100087.09
2023-03-25T17:43:33.873Z,100087.94
2023-03-25T17:45:35.558Z,100098.56
2023-03-25T17:47:37.035Z,100093.56
2023-03-25T17:49:38.529Z,100085.84
2023-03-25T17:51:41.074Z,100106.44
2023-03-25T17:53:42.592Z,100091.72
2023-03-25T17:55:45.262Z,100102.31
2023-03-25T17:57:47.274Z,100106.78
2023-03-25T17:59:49.027Z,100101.66
2023-03-25T18:01:50.605Z,100110.47
2023-03-25T18:03:52.205Z,100116.78
2023-03-25T18:05:54.451Z,100114.13
2023-03-25T18:07:58.155Z,100120.31
2023-03-25T18:10:00.022Z,100130.78
2023-03-25T18:12:01.646Z,100128.19
2023-03-25T18:14:03.149Z,100133.50
2023-03-25T18:16:05.562Z,100140.47
2023-03-25T18:18:18.008Z,100144.00
2023-03-25T18:20:26.244Z,100148.34
2023-03-25T18:22:27.724Z,100141.34
2023-03-25T18:24:29.592Z,100143.81
2023-03-25T18:26:31.229Z,100143.75
2023-03-25T18:28:34.460Z,100155.06
2023-03-25T18:31:05.216Z,100156.88
2023-03-25T18:33:06.692Z,100158.59
2023-03-25T18:35:08.726Z,100163.91
2023-03-25T18:37:11.899Z,100159.50
2023-03-25T18:39:19.316Z,100166.53
2023-03-25T18:41:20.910Z,100172.66
2023-03-25T18:43:22.949Z,100176.16
2023-03-25T18:45:25.851Z,100177.91
2023-03-25T18:47:27.439Z,100182.31
2023-03-25T18:49:29.067Z,100180.63
2023-03-25T18:51:31.236Z,100192.00
2023-03-25T18:53:32.772Z,100187.69
2023-03-25T18:55:37.161Z,100202.72
2023-03-25T18:57:38.785Z,100202.72
2023-03-25T18:59:40.230Z,100204.50
2023-03-25T19:01:42.456Z,100213.25
2023-03-25T19:03:44.834Z,100203.63
2023-03-25T19:05:46.752Z,100213.34
2023-03-25T19:07:49.379Z,100214.22
2023-03-25T19:09:53.104Z,100215.13
2023-03-25T19:11:54.956Z,100223.91
2023-03-25T19:13:56.704Z,100228.31
2023-03-25T19:15:58.223Z,100230.13
2023-03-25T19:18:01.707Z,100233.72
2023-03-25T19:20:04.597Z,100238.16
2023-03-25T19:22:06.054Z,100239.94
2023-03-25T19:24:07.686Z,100235.59
2023-03-25T19:26:09.176Z,100239.94
2023-03-25T19:28:11.307Z,100250.44
2023-03-25T19:30:16.482Z,100239.94
2023-03-25T19:32:18.071Z,100248.72
2023-03-25T19:34:22.079Z,100255.69
2023-03-25T19:36:25.755Z,100253.03
2023-03-25T19:38:27.402Z,100235.63
2023-03-25T19:40:30.607Z,100253.16
2023-03-25T19:42:32.058Z,100249.66
2023-03-25T19:44:33.500Z,100255.78
2023-03-25T19:46:35.541Z,100261.91
2023-03-25T19:48:37.089Z,100257.47
2023-03-25T19:50:40.750Z,100261.88
2023-03-25T19:52:43.547Z,100260.09
2023-03-25T19:54:46.835Z,100268.84
2023-03-25T19:56:48.440Z,100255.69
2023-03-25T19:58:49.938Z,100260.97
2023-03-25T20:00:51.770Z,100261.81
2023-03-25T20:03:00.640Z,100258.28
2023-03-25T20:05:02.663Z,100264.44
2023-03-25T20:07:04.162Z,100260.91
2023-03-25T20:09:05.792Z,100261.00
2023-03-25T20:11:11.926Z,100264.53
2023-03-25T20:13:13.428Z,100265.41
2023-03-25T20:15:16.611Z,100277.59
2023-03-25T20:17:18.392Z,100276.72
2023-03-25T20:19:19.861Z,100270.63
2023-03-25T20:21:22.968Z,100272.38
2023-03-25T20:23:24.452Z,100272.28
2023-03-25T20:25:25.926Z,100274.09
2023-03-25T20:27:28.314Z,100272.38
2023-03-25T20:29:29.781Z,100275.94
2023-03-25T20:31:33.206Z,100271.63
2023-03-25T20:33:34.800Z,100278.75
2023-03-25T20:35:36.309Z,100282.31
2023-03-25T20:37:39.762Z,100291.09
2023-03-25T20:39:41.607Z,100291.97
2023-03-25T20:41:43.087Z,100296.34
2023-03-25T20:43:44.749Z,100304.28
2023-03-25T20:45:46.221Z,100292.09
2023-03-25T20:47:47.813Z,100296.56
2023-03-25T20:49:49.304Z,100298.34
2023-03-25T20:51:51.336Z,100303.66
2023-03-25T20:53:53.382Z,100301.84
2023-03-25T20:55:56.837Z,100306.28
2023-03-25T20:57:58.370Z,100312.41
2023-03-25T21:00:00.283Z,100310.63
2023-03-25T21:02:01.881Z,100301.00
2023-03-25T21:04:04.365Z,100310.59
2023-03-25T21:06:16.835Z,100310.59
2023-03-25T21:08:31.785Z,100303.53
2023-03-25T21:10:33.266Z,100307.84
2023-03-25T21:12:43.589Z,100313.09
2023-03-25T21:14:45.617Z,100312.13
2023-03-25T21:16:47.659Z,100314.78
2023-03-25T21:18:50.295Z,100323.56
2023-03-25T21:20:56.580Z,100313.09
2023-03-25T21:22:59.201Z,100326.28
2023-03-25T21:25:00.840Z,100326.31
2023-03-25T21:27:03.029Z,100324.56
2023-03-25T21:29:04.669Z,100326.31
2023-03-25T21:31:08.996Z,100325.41
2023-03-25T21:33:10.797Z,100329.88
2023-03-25T21:35:12.291Z,100342.13
2023-03-25T21:37:13.836Z,100338.63
2023-03-25T21:39:15.403Z,100340.41
2023-03-25T21:41:16.889Z,100338.63
2023-03-25T21:43:18.348Z,100347.38
2023-03-25T21:45:19.938Z,100350.94
2023-03-25T21:47:22.423Z,100345.66
2023-03-25T21:49:24.196Z,100351.84
2023-03-25T21:51:26.626Z,100349.22
2023-03-25T21:53:32.655Z,100353.56
2023-03-25T21:55:34.294Z,100355.38
2023-03-25T21:57:38.319Z,100356.28
2023-03-25T21:59:40.064Z,100350.19
2023-03-25T22:01:41.762Z,100346.75
2023-03-25T22:03:46.493Z,100345.88
2023-03-25T22:05:48.074Z,100346.78
2023-03-25T22:07:49.587Z,100352.91
2023-03-25T22:09:51.143Z,100358.16
2023-03-25T22:11:52.600Z,100363.38
2023-03-25T22:13:54.177Z,100359.84
2023-03-25T22:15:55.980Z,100353.69
2023-03-25T22:17:57.601Z,100360.63
2023-03-25T22:19:59.158Z,100359.75
2023-03-25T22:22:02.719Z,100365.91
2023-03-25T22:24:06.646Z,100370.31
2023-03-25T22:26:09.968Z,100359.84
2023-03-25T22:28:11.773Z,100364.16
2023-03-25T22:30:13.980Z,100366.75
2023-03-25T22:32:15.455Z,100376.34
2023-03-25T22:34:16.921Z,100379.81
2023-03-25T22:36:18.678Z,100376.38
2023-03-25T22:38:21.294Z,100379.91
2023-03-25T22:40:23.903Z,100384.31
2023-03-25T22:42:25.877Z,100386.03
2023-03-25T22:44:28.195Z,100391.28
2023-03-25T22:46:29.751Z,100388.66
2023-03-25T22:48:31.847Z,100400.06
2023-03-25T22:50:34.648Z,100405.28
2023-03-25T22:52:36.329Z,100406.22
2023-03-25T22:54:37.989Z,100409.78
2023-03-25T22:56:39.786Z,100417.63
2023-03-25T22:58:41.637Z,100417.59
2023-03-25T23:00:43.166Z,100415.00
2023-03-25T23:02:47.011Z,100422.03
2023-03-25T23:04:48.644Z,100423.75
2023-03-25T23:07:00.896Z,100430.72
2023-03-25T23:09:09.757Z,100431.63
2023-03-25T23:11:16.833Z,100438.66
2023-03-25T23:13:18.727Z,100437.72
2023-03-25T23:15:20.322Z,100431.66
2023-03-25T23:17:23.838Z,100441.31
2023-03-25T23:19:25.295Z,100447.47
2023-03-25T23:21:29.901Z,100447.50
2023-03-25T23:23:31.483Z,100450.13
2023-03-25T23:25:32.942Z,100450.16
2023-03-25T23:27:34.425Z,100462.41
2023-03-25T23:29:36.527Z,100462.44
2023-03-25T23:31:41.360Z,100473.75
2023-03-25T23:33:43.152Z,100465.94
2023-03-25T23:35:44.662Z,100472.13
2023-03-25T23:37:46.354Z,100474.78
2023-03-25T23:39:47.826Z,100481.03
2023-03-25T23:41:50.739Z,100482.75
2023-03-25T23:43:54.019Z,100475.75
2023-03-25T23:45:55.732Z,100475.84
2023-03-25T23:47:57.524Z,100483.75
2023-03-25T23:50:02.013Z,100475.91
2023-03-25T23:52:05.397Z,100490.75
2023-03-25T23:54:09.971Z,100484.59
2023-03-25T23:56:14.307Z,100486.41
2023-03-25T23:58:16.167Z,100489.94
